sensor_id;sensor_type;location;lat;lon;timestamp;temperature;humidity
26049;DHT22;13822;51.568;5.086;2023-06-10T04:30:57;19.50;99.90
26049;DHT22;13822;51.568;5.086;2023-06-10T04:36:12;19.50;99.90
26049;DHT22;13822;51.568;5.086;2023-06-10T04:41:18;19.50;99.90
26049;DHT22;13822;51.568;5.086;2023-06-10T04:47:00;19.50;99.90
26049;DHT22;13822;51.568;5.086;2023-06-10T04:52:10;19.50;99.90
26049;DHT22;13822;51.568;5.086;2023-06-10T05:03:22;19.60;99.90
26049;DHT22;13822;51.568;5.086;2023-06-10T05:08:41;19.60;99.90
26049;DHT22;13822;51.568;5.086;2023-06-10T05:13:44;19.60;99.90
26049;DHT22;13822;51.568;5.086;2023-06-10T05:18:49;19.70;99.90
26049;DHT22;13822;51.568;5.086;2023-06-10T05:24:10;19.70;99.90
26049;DHT22;13822;51.568;5.086;2023-06-10T05:30:00;19.80;99.90
26049;DHT22;13822;51.568;5.086;2023-06-10T05:35:03;19.90;99.90
26049;DHT22;13822;51.568;5.086;2023-06-10T05:40:53;20.00;99.90
26049;DHT22;13822;51.568;5.086;2023-06-10T05:45:59;20.10;99.90
26049;DHT22;13822;51.568;5.086;2023-06-10T05:51:04;20.20;99.90
26049;DHT22;13822;51.568;5.086;2023-06-10T05:56:37;20.30;99.90
26049;DHT22;13822;51.568;5.086;2023-06-10T06:01:42;20.50;99.90
26049;DHT22;13822;51.568;5.086;2023-06-10T06:12:31;20.80;99.90
26049;DHT22;13822;51.568;5.086;2023-06-10T06:23:29;21.10;99.90
26049;DHT22;13822;51.568;5.086;2023-06-10T06:28:32;21.30;99.90
26049;DHT22;13822;51.568;5.086;2023-06-10T06:33:35;21.40;99.90
26049;DHT22;13822;51.568;5.086;2023-06-10T06:38:40;21.60;99.90
26049;DHT22;13822;51.568;5.086;2023-06-10T06:43:42;21.80;99.90
26049;DHT22;13822;51.568;5.086;2023-06-10T06:48:49;21.90;99.90
26049;DHT22;13822;51.568;5.086;2023-06-10T06:53:51;22.00;99.90
26049;DHT22;13822;51.568;5.086;2023-06-10T06:58:56;22.10;99.90
26049;DHT22;13822;51.568;5.086;2023-06-10T07:03:58;22.30;99.90
26049;DHT22;13822;51.568;5.086;2023-06-10T07:09:13;22.30;99.90
26049;DHT22;13822;51.568;5.086;2023-06-10T07:14:16;22.50;99.90
26049;DHT22;13822;51.568;5.086;2023-06-10T07:19:31;22.60;99.90
26049;DHT22;13822;51.568;5.086;2023-06-10T07:24:37;22.70;99.90
26049;DHT22;13822;51.568;5.086;2023-06-10T07:29:40;22.90;99.90
26049;DHT22;13822;51.568;5.086;2023-06-10T07:34:43;23.00;99.90
26049;DHT22;13822;51.568;5.086;2023-06-10T07:39:46;23.20;99.90
26049;DHT22;13822;51.568;5.086;2023-06-10T07:45:00;23.30;99.90
26049;DHT22;13822;51.568;5.086;2023-06-10T07:55:33;23.70;98.70
26049;DHT22;13822;51.568;5.086;2023-06-10T08:00:47;24.00;96.50
26049;DHT22;13822;51.568;5.086;2023-06-10T08:05:50;24.20;94.40
26049;DHT22;13822;51.568;5.086;2023-06-10T08:10:52;24.40;94.00
26049;DHT22;13822;51.568;5.086;2023-06-10T08:15:54;24.60;90.80
26049;DHT22;13822;51.568;5.086;2023-06-10T08:20:57;24.80;87.60
26049;DHT22;13822;51.568;5.086;2023-06-10T08:26:02;25.00;83.20
26049;DHT22;13822;51.568;5.086;2023-06-10T08:31:04;25.20;81.60
26049;DHT22;13822;51.568;5.086;2023-06-10T08:48:41;26.00;81.30
26049;DHT22;13822;51.568;5.086;2023-06-10T08:54:28;26.10;84.00
26049;DHT22;13822;51.568;5.086;2023-06-10T08:59:38;26.30;77.30
26049;DHT22;13822;51.568;5.086;2023-06-10T09:04:43;26.30;72.60
26049;DHT22;13822;51.568;5.086;2023-06-10T09:09:49;26.40;72.60
26049;DHT22;13822;51.568;5.086;2023-06-10T09:14:54;26.60;68.00
26049;DHT22;13822;51.568;5.086;2023-06-10T09:20:23;26.80;72.00
26049;DHT22;13822;51.568;5.086;2023-06-10T09:25:38;26.90;69.30
26049;DHT22;13822;51.568;5.086;2023-06-10T09:31:19;27.10;72.60
26049;DHT22;13822;51.568;5.086;2023-06-10T09:36:30;27.20;66.90
26049;DHT22;13822;51.568;5.086;2023-06-10T09:41:42;27.30;64.90
26049;DHT22;13822;51.568;5.086;2023-06-10T09:46:45;27.50;63.70
26049;DHT22;13822;51.568;5.086;2023-06-10T09:51:49;27.70;59.70
26049;DHT22;13822;51.568;5.086;2023-06-10T09:56:55;27.90;60.40
26049;DHT22;13822;51.568;5.086;2023-06-10T10:01:58;28.20;57.10
26049;DHT22;13822;51.568;5.086;2023-06-10T10:07:02;28.40;57.70
26049;DHT22;13822;51.568;5.086;2023-06-10T10:12:06;28.70;59.10
26049;DHT22;13822;51.568;5.086;2023-06-10T10:17:10;28.80;56.50
26049;DHT22;13822;51.568;5.086;2023-06-10T10:22:20;29.10;52.10
26049;DHT22;13822;51.568;5.086;2023-06-10T10:27:27;29.30;51.60
26049;DHT22;13822;51.568;5.086;2023-06-10T10:32:56;29.50;48.30
26049;DHT22;13822;51.568;5.086;2023-06-10T10:38:08;29.60;48.80
26049;DHT22;13822;51.568;5.086;2023-06-10T10:43:11;29.80;49.30
26049;DHT22;13822;51.568;5.086;2023-06-10T10:48:13;30.10;47.80
26049;DHT22;13822;51.568;5.086;2023-06-10T10:53:19;30.40;44.10
26049;DHT22;13822;51.568;5.086;2023-06-10T10:58:24;30.80;46.10
26049;DHT22;13822;51.568;5.086;2023-06-10T11:03:30;31.30;42.50
26049;DHT22;13822;51.568;5.086;2023-06-10T11:13:40;31.80;38.50
26049;DHT22;13822;51.568;5.086;2023-06-10T11:19:00;32.00;36.90
26049;DHT22;13822;51.568;5.086;2023-06-10T11:24:09;32.10;36.10
26049;DHT22;13822;51.568;5.086;2023-06-10T11:29:14;32.40;34.70
26049;DHT22;13822;51.568;5.086;2023-06-10T11:34:21;33.10;37.10
26049;DHT22;13822;51.568;5.086;2023-06-10T11:39:25;33.20;35.70
26049;DHT22;13822;51.568;5.086;2023-06-10T11:44:28;33.40;32.20
26049;DHT22;13822;51.568;5.086;2023-06-10T11:49:37;34.00;33.30
26049;DHT22;13822;51.568;5.086;2023-06-10T11:54:53;34.20;31.60
26049;DHT22;13822;51.568;5.086;2023-06-10T12:00:03;34.20;31.30
26049;DHT22;13822;51.568;5.086;2023-06-10T12:05:18;34.30;30.30
26049;DHT22;13822;51.568;5.086;2023-06-10T12:10:21;34.30;30.00
26049;DHT22;13822;51.568;5.086;2023-06-10T12:16:05;34.20;30.00
26049;DHT22;13822;51.568;5.086;2023-06-10T12:21:20;34.40;27.60
26049;DHT22;13822;51.568;5.086;2023-06-10T12:26:39;34.90;27.50
26049;DHT22;13822;51.568;5.086;2023-06-10T12:31:54;35.10;28.20
26049;DHT22;13822;51.568;5.086;2023-06-10T12:36:59;35.10;26.40
26049;DHT22;13822;51.568;5.086;2023-06-10T12:42:02;35.60;26.10
26049;DHT22;13822;51.568;5.086;2023-06-10T12:47:07;35.50;25.80
26049;DHT22;13822;51.568;5.086;2023-06-10T12:52:11;35.30;25.10
26049;DHT22;13822;51.568;5.086;2023-06-10T12:57:14;35.50;24.90
26049;DHT22;13822;51.568;5.086;2023-06-10T13:02:19;35.80;26.40
26049;DHT22;13822;51.568;5.086;2023-06-10T13:07:22;36.30;25.20
26049;DHT22;13822;51.568;5.086;2023-06-10T13:12:25;36.10;25.70
26049;DHT22;13822;51.568;5.086;2023-06-10T13:17:47;36.10;24.90
26049;DHT22;13822;51.568;5.086;2023-06-10T13:22:53;36.30;23.00
26049;DHT22;13822;51.568;5.086;2023-06-10T13:27:59;36.40;24.70
26049;DHT22;13822;51.568;5.086;2023-06-10T13:33:01;36.70;24.10
26049;DHT22;13822;51.568;5.086;2023-06-10T13:38:04;37.00;23.30
26049;DHT22;13822;51.568;5.086;2023-06-10T13:43:06;37.00;23.90
26049;DHT22;13822;51.568;5.086;2023-06-10T13:48:08;36.90;22.90
26049;DHT22;13822;51.568;5.086;2023-06-10T13:53:11;36.60;23.40
26049;DHT22;13822;51.568;5.086;2023-06-10T13:58:13;36.60;23.40
26049;DHT22;13822;51.568;5.086;2023-06-10T14:03:29;36.90;22.90
26049;DHT22;13822;51.568;5.086;2023-06-10T14:08:38;37.10;22.40
26049;DHT22;13822;51.568;5.086;2023-06-10T14:13:41;37.20;22.50
26049;DHT22;13822;51.568;5.086;2023-06-10T14:18:43;37.20;21.60
26049;DHT22;13822;51.568;5.086;2023-06-10T14:23:46;37.40;20.80
26049;DHT22;13822;51.568;5.086;2023-06-10T14:28:48;37.50;22.40
26049;DHT22;13822;51.568;5.086;2023-06-10T14:33:51;37.70;21.60
26049;DHT22;13822;51.568;5.086;2023-06-10T14:38:53;38.30;23.90
26049;DHT22;13822;51.568;5.086;2023-06-10T14:43:55;38.20;22.60
26049;DHT22;13822;51.568;5.086;2023-06-10T14:48:57;38.20;21.70
26049;DHT22;13822;51.568;5.086;2023-06-10T14:54:01;38.10;21.90
26049;DHT22;13822;51.568;5.086;2023-06-10T14:59:03;38.00;21.50
26049;DHT22;13822;51.568;5.086;2023-06-10T15:04:05;37.50;21.50
26049;DHT22;13822;51.568;5.086;2023-06-10T15:09:07;37.10;21.60
26049;DHT22;13822;51.568;5.086;2023-06-10T15:14:09;36.90;22.20
26049;DHT22;13822;51.568;5.086;2023-06-10T15:19:11;36.40;22.10
26049;DHT22;13822;51.568;5.086;2023-06-10T15:24:13;35.80;22.40
26049;DHT22;13822;51.568;5.086;2023-06-10T15:29:15;35.50;23.20
26049;DHT22;13822;51.568;5.086;2023-06-10T15:34:17;35.40;23.60
26049;DHT22;13822;51.568;5.086;2023-06-10T15:39:19;35.50;23.10
26049;DHT22;13822;51.568;5.086;2023-06-10T15:44:23;35.50;23.50
26049;DHT22;13822;51.568;5.086;2023-06-10T15:49:24;35.20;23.20
26049;DHT22;13822;51.568;5.086;2023-06-10T15:54:27;35.00;22.70
26049;DHT22;13822;51.568;5.086;2023-06-10T15:59:29;34.80;23.30
26049;DHT22;13822;51.568;5.086;2023-06-10T16:04:31;34.60;23.30
26049;DHT22;13822;51.568;5.086;2023-06-10T16:09:33;34.50;23.40
26049;DHT22;13822;51.568;5.086;2023-06-10T16:14:36;34.20;23.90
26049;DHT22;13822;51.568;5.086;2023-06-10T16:19:38;34.10;23.70
26049;DHT22;13822;51.568;5.086;2023-06-10T16:24:40;33.70;24.10
26049;DHT22;13822;51.568;5.086;2023-06-10T16:29:42;33.50;24.40
26049;DHT22;13822;51.568;5.086;2023-06-10T16:34:44;33.30;24.50
26049;DHT22;13822;51.568;5.086;2023-06-10T16:39:46;33.20;24.70
26049;DHT22;13822;51.568;5.086;2023-06-10T16:44:49;33.00;24.80
26049;DHT22;13822;51.568;5.086;2023-06-10T16:49:51;32.80;24.80
26049;DHT22;13822;51.568;5.086;2023-06-10T16:54:52;32.60;24.90
26049;DHT22;13822;51.568;5.086;2023-06-10T16:59:54;32.30;25.20
26049;DHT22;13822;51.568;5.086;2023-06-10T17:04:56;32.00;25.50
26049;DHT22;13822;51.568;5.086;2023-06-10T17:09:58;31.80;25.80
26049;DHT22;13822;51.568;5.086;2023-06-10T17:15:01;31.80;25.80
26049;DHT22;13822;51.568;5.086;2023-06-10T17:20:03;31.80;26.00
26049;DHT22;13822;51.568;5.086;2023-06-10T17:25:05;31.60;26.00
26049;DHT22;13822;51.568;5.086;2023-06-10T17:30:11;31.40;26.30
26049;DHT22;13822;51.568;5.086;2023-06-10T17:35:13;31.40;26.90
26049;DHT22;13822;51.568;5.086;2023-06-10T17:40:15;31.30;26.90
26049;DHT22;13822;51.568;5.086;2023-06-10T17:45:17;31.20;26.80
26049;DHT22;13822;51.568;5.086;2023-06-10T17:50:19;31.00;26.90
26049;DHT22;13822;51.568;5.086;2023-06-10T17:55:21;30.90;27.10
26049;DHT22;13822;51.568;5.086;2023-06-10T18:00:23;30.70;27.20
26049;DHT22;13822;51.568;5.086;2023-06-10T18:05:26;30.60;27.70
26049;DHT22;13822;51.568;5.086;2023-06-10T18:10:28;30.60;27.70
26049;DHT22;13822;51.568;5.086;2023-06-10T18:15:33;30.40;27.80
26049;DHT22;13822;51.568;5.086;2023-06-10T18:20:38;30.30;28.00
26049;DHT22;13822;51.568;5.086;2023-06-10T18:25:41;30.30;28.50
26049;DHT22;13822;51.568;5.086;2023-06-10T18:30:43;30.20;28.30
26049;DHT22;13822;51.568;5.086;2023-06-10T18:35:45;30.00;29.10
26049;DHT22;13822;51.568;5.086;2023-06-10T18:40:47;29.80;29.70
26049;DHT22;13822;51.568;5.086;2023-06-10T18:45:49;29.70;29.90
26049;DHT22;13822;51.568;5.086;2023-06-10T18:50:53;29.50;30.00
26049;DHT22;13822;51.568;5.086;2023-06-10T18:55:55;29.40;30.10
26049;DHT22;13822;51.568;5.086;2023-06-10T19:00:58;29.20;30.50
26049;DHT22;13822;51.568;5.086;2023-06-10T19:06:01;29.10;31.10
26049;DHT22;13822;51.568;5.086;2023-06-10T19:11:10;28.90;31.00
26049;DHT22;13822;51.568;5.086;2023-06-10T19:16:13;28.80;32.50
26049;DHT22;13822;51.568;5.086;2023-06-10T19:21:15;28.70;32.50
26049;DHT22;13822;51.568;5.086;2023-06-10T19:26:18;28.50;32.80
26049;DHT22;13822;51.568;5.086;2023-06-10T19:31:20;28.50;32.90
26049;DHT22;13822;51.568;5.086;2023-06-10T19:36:22;28.30;33.80
26049;DHT22;13822;51.568;5.086;2023-06-10T19:41:25;28.10;34.10
26049;DHT22;13822;51.568;5.086;2023-06-10T19:46:30;28.00;34.30
26049;DHT22;13822;51.568;5.086;2023-06-10T19:51:34;27.80;34.40
26049;DHT22;13822;51.568;5.086;2023-06-10T19:56:36;27.70;35.00
26049;DHT22;13822;51.568;5.086;2023-06-10T20:01:38;27.50;35.50
26049;DHT22;13822;51.568;5.086;2023-06-10T20:06:40;27.40;35.90
26049;DHT22;13822;51.568;5.086;2023-06-10T20:11:42;27.20;36.30
